Gober, Texas
Current Conditions -  °F | °C
As of 8:35 AM on Saturday 22 Nov 2014 (Local Time) from KGVT Reporting Station
Overcast Overcast  
Wind Chill: 61°   Ceiling: 1500
Heat Index: 61°   Visibility: 10mi
Dew Point: 52°   Wind: 13mph
Humidity: 72%   Direction: 140°SE
Pressure: 30.08"   Gusts: NA
Location:  33.47°N, 96.09°W
Report Text: KGVT 221435Z AUTO 14011KT 10SM BKN015 BKN035 OVC100 16/11 A3008 RMK AO2 LTG DSNT W THRU N
Loading
Personal Weather Stations






























Interactive Weather Map New forecast layout! Learn more

10-Day Weather Forecast

Advertisements
Track Severe Weather on mobile